sensor_id;sensor_type;location;lat;lon;timestamp;temperature;humidity
70928;SHT31;58587;53.034;18.576;2023-04-15T10:02:34;11.14;86.62
70928;SHT31;58587;53.034;18.576;2023-04-15T10:05:01;11.12;85.93
70928;SHT31;58587;53.034;18.576;2023-04-15T10:07:27;10.99;86.10
70928;SHT31;58587;53.034;18.576;2023-04-15T10:09:53;11.04;86.45
70928;SHT31;58587;53.034;18.576;2023-04-15T10:12:19;11.01;86.59
70928;SHT31;58587;53.034;18.576;2023-04-15T10:14:58;10.99;86.31
70928;SHT31;58587;53.034;18.576;2023-04-15T10:17:26;10.94;86.71
70928;SHT31;58587;53.034;18.576;2023-04-15T10:19:53;10.94;86.61
70928;SHT31;58587;53.034;18.576;2023-04-15T10:22:19;10.88;86.64
70928;SHT31;58587;53.034;18.576;2023-04-15T10:24:46;10.95;86.59
70928;SHT31;58587;53.034;18.576;2023-04-15T10:27:13;10.94;86.54
70928;SHT31;58587;53.034;18.576;2023-04-15T10:29:38;10.94;85.82
70928;SHT31;58587;53.034;18.576;2023-04-15T10:32:04;10.85;86.37
70928;SHT31;58587;53.034;18.576;2023-04-15T10:34:30;10.85;86.83
70928;SHT31;58587;53.034;18.576;2023-04-15T10:37:00;10.85;86.89
70928;SHT31;58587;53.034;18.576;2023-04-15T10:42:12;10.88;86.26
70928;SHT31;58587;53.034;18.576;2023-04-15T10:44:40;10.91;86.75
70928;SHT31;58587;53.034;18.576;2023-04-15T10:47:16;10.92;86.73
70928;SHT31;58587;53.034;18.576;2023-04-15T10:50:07;10.98;86.59
70928;SHT31;58587;53.034;18.576;2023-04-15T10:52:32;10.95;86.51
70928;SHT31;58587;53.034;18.576;2023-04-15T10:57:38;10.84;86.47
70928;SHT31;58587;53.034;18.576;2023-04-15T11:00:19;10.86;86.45
70928;SHT31;58587;53.034;18.576;2023-04-15T11:05:18;10.89;86.51
70928;SHT31;58587;53.034;18.576;2023-04-15T11:07:47;10.84;86.65
70928;SHT31;58587;53.034;18.576;2023-04-15T11:12:45;10.82;86.81
70928;SHT31;58587;53.034;18.576;2023-04-15T11:15:33;10.84;86.79
70928;SHT31;58587;53.034;18.576;2023-04-15T11:18:08;10.84;87.15
70928;SHT31;58587;53.034;18.576;2023-04-15T11:20:34;10.79;87.35
70928;SHT31;58587;53.034;18.576;2023-04-15T11:22:59;10.81;87.31
70928;SHT31;58587;53.034;18.576;2023-04-15T11:25:26;10.88;87.81
70928;SHT31;58587;53.034;18.576;2023-04-15T11:27:53;10.91;87.35
70928;SHT31;58587;53.034;18.576;2023-04-15T11:30:20;10.88;87.77
70928;SHT31;58587;53.034;18.576;2023-04-15T11:32:46;10.92;87.97
70928;SHT31;58587;53.034;18.576;2023-04-15T11:35:12;10.85;87.62
70928;SHT31;58587;53.034;18.576;2023-04-15T11:37:37;10.88;87.46
70928;SHT31;58587;53.034;18.576;2023-04-15T11:40:03;10.86;87.63
70928;SHT31;58587;53.034;18.576;2023-04-15T11:42:28;10.88;87.70
70928;SHT31;58587;53.034;18.576;2023-04-15T11:45:10;10.91;87.55
70928;SHT31;58587;53.034;18.576;2023-04-15T11:47:36;10.96;87.47
70928;SHT31;58587;53.034;18.576;2023-04-15T11:50:21;10.98;87.94
70928;SHT31;58587;53.034;18.576;2023-04-15T11:52:58;11.01;88.01
70928;SHT31;58587;53.034;18.576;2023-04-15T11:55:24;11.02;87.70
70928;SHT31;58587;53.034;18.576;2023-04-15T11:58:04;11.05;87.79
70928;SHT31;58587;53.034;18.576;2023-04-15T12:00:29;11.06;88.05
70928;SHT31;58587;53.034;18.576;2023-04-15T12:03:11;11.06;88.57
70928;SHT31;58587;53.034;18.576;2023-04-15T12:05:36;11.05;87.96
70928;SHT31;58587;53.034;18.576;2023-04-15T12:08:01;11.02;88.28
70928;SHT31;58587;53.034;18.576;2023-04-15T12:10:30;10.98;88.38
70928;SHT31;58587;53.034;18.576;2023-04-15T12:12:55;11.01;88.58
70928;SHT31;58587;53.034;18.576;2023-04-15T12:15:21;11.04;88.43
70928;SHT31;58587;53.034;18.576;2023-04-15T12:17:48;11.11;88.36
70928;SHT31;58587;53.034;18.576;2023-04-15T12:20:20;11.15;88.64
70928;SHT31;58587;53.034;18.576;2023-04-15T12:22:46;11.18;89.12
70928;SHT31;58587;53.034;18.576;2023-04-15T12:25:11;11.26;88.92
70928;SHT31;58587;53.034;18.576;2023-04-15T12:27:37;11.32;88.99
70928;SHT31;58587;53.034;18.576;2023-04-15T12:30:03;11.42;88.85
70928;SHT31;58587;53.034;18.576;2023-04-15T12:32:29;11.46;88.49
70928;SHT31;58587;53.034;18.576;2023-04-15T12:34:58;11.49;88.74
70928;SHT31;58587;53.034;18.576;2023-04-15T12:37:24;11.50;88.31
70928;SHT31;58587;53.034;18.576;2023-04-15T12:39:50;11.59;88.29
70928;SHT31;58587;53.034;18.576;2023-04-15T12:42:16;11.59;88.47
70928;SHT31;58587;53.034;18.576;2023-04-15T12:44:42;11.62;88.50
70928;SHT31;58587;53.034;18.576;2023-04-15T12:47:10;11.66;88.05
70928;SHT31;58587;53.034;18.576;2023-04-15T12:49:36;11.60;87.81
70928;SHT31;58587;53.034;18.576;2023-04-15T12:52:02;11.53;87.91
70928;SHT31;58587;53.034;18.576;2023-04-15T12:54:30;11.56;87.77
70928;SHT31;58587;53.034;18.576;2023-04-15T12:56:56;11.53;87.80
70928;SHT31;58587;53.034;18.576;2023-04-15T12:59:21;11.55;87.61
70928;SHT31;58587;53.034;18.576;2023-04-15T13:01:48;11.40;87.76
70928;SHT31;58587;53.034;18.576;2023-04-15T13:04:14;11.46;87.68
70928;SHT31;58587;53.034;18.576;2023-04-15T13:06:40;11.46;88.02
70928;SHT31;58587;53.034;18.576;2023-04-15T13:09:06;11.44;87.85
70928;SHT31;58587;53.034;18.576;2023-04-15T13:11:37;11.42;87.88
70928;SHT31;58587;53.034;18.576;2023-04-15T13:14:04;11.40;87.86
70928;SHT31;58587;53.034;18.576;2023-04-15T13:16:30;11.44;88.11
70928;SHT31;58587;53.034;18.576;2023-04-15T13:18:57;11.44;88.09
70928;SHT31;58587;53.034;18.576;2023-04-15T13:21:23;11.37;88.18
70928;SHT31;58587;53.034;18.576;2023-04-15T13:23:48;11.32;88.01
70928;SHT31;58587;53.034;18.576;2023-04-15T13:26:17;11.37;88.30
70928;SHT31;58587;53.034;18.576;2023-04-15T13:28:42;11.44;88.18
70928;SHT31;58587;53.034;18.576;2023-04-15T13:31:08;11.49;88.10
70928;SHT31;58587;53.034;18.576;2023-04-15T13:33:33;11.49;87.78
70928;SHT31;58587;53.034;18.576;2023-04-15T13:35:58;11.46;87.80
70928;SHT31;58587;53.034;18.576;2023-04-15T13:38:24;11.37;87.50
70928;SHT31;58587;53.034;18.576;2023-04-15T13:40:49;11.42;87.78
70928;SHT31;58587;53.034;18.576;2023-04-15T13:43:15;11.39;88.05
70928;SHT31;58587;53.034;18.576;2023-04-15T13:45:42;11.36;88.04
70928;SHT31;58587;53.034;18.576;2023-04-15T13:48:07;11.33;88.03
70928;SHT31;58587;53.034;18.576;2023-04-15T13:50:32;11.35;88.35
70928;SHT31;58587;53.034;18.576;2023-04-15T13:52:57;11.32;88.79
70928;SHT31;58587;53.034;18.576;2023-04-15T13:55:23;11.29;88.47
70928;SHT31;58587;53.034;18.576;2023-04-15T13:57:48;11.28;88.71
70928;SHT31;58587;53.034;18.576;2023-04-15T14:00:14;11.30;88.59
70928;SHT31;58587;53.034;18.576;2023-04-15T14:02:40;11.36;88.55
70928;SHT31;58587;53.034;18.576;2023-04-15T14:05:06;11.37;88.55
70928;SHT31;58587;53.034;18.576;2023-04-15T14:07:32;11.44;88.32
70928;SHT31;58587;53.034;18.576;2023-04-15T14:09:57;11.49;88.68
70928;SHT31;58587;53.034;18.576;2023-04-15T14:12:23;11.52;88.63
70928;SHT31;58587;53.034;18.576;2023-04-15T14:14:48;11.49;88.59
70928;SHT31;58587;53.034;18.576;2023-04-15T14:17:13;11.47;88.50
70928;SHT31;58587;53.034;18.576;2023-04-15T14:19:39;11.49;88.85
70928;SHT31;58587;53.034;18.576;2023-04-15T14:22:04;11.50;88.65
70928;SHT31;58587;53.034;18.576;2023-04-15T14:24:30;11.55;88.63
70928;SHT31;58587;53.034;18.576;2023-04-15T14:26:55;11.62;88.76
70928;SHT31;58587;53.034;18.576;2023-04-15T14:29:21;11.62;88.80
70928;SHT31;58587;53.034;18.576;2023-04-15T14:31:47;11.59;88.92
70928;SHT31;58587;53.034;18.576;2023-04-15T14:34:14;11.57;88.57
70928;SHT31;58587;53.034;18.576;2023-04-15T14:36:40;11.57;88.43
70928;SHT31;58587;53.034;18.576;2023-04-15T14:39:06;11.62;88.56
70928;SHT31;58587;53.034;18.576;2023-04-15T14:41:32;11.60;88.62
70928;SHT31;58587;53.034;18.576;2023-04-15T14:43:57;11.60;88.30
70928;SHT31;58587;53.034;18.576;2023-04-15T14:46:22;11.52;88.09
70928;SHT31;58587;53.034;18.576;2023-04-15T14:48:48;11.52;87.86
70928;SHT31;58587;53.034;18.576;2023-04-15T14:51:13;11.47;88.13
70928;SHT31;58587;53.034;18.576;2023-04-15T14:53:40;11.42;88.12
70928;SHT31;58587;53.034;18.576;2023-04-15T14:56:06;11.42;87.88
70928;SHT31;58587;53.034;18.576;2023-04-15T14:58:31;11.39;88.38
70928;SHT31;58587;53.034;18.576;2023-04-15T15:00:57;11.40;87.72
70928;SHT31;58587;53.034;18.576;2023-04-15T15:03:22;11.49;88.52
70928;SHT31;58587;53.034;18.576;2023-04-15T15:05:48;11.62;88.47
70928;SHT31;58587;53.034;18.576;2023-04-15T15:08:13;11.76;88.97
70928;SHT31;58587;53.034;18.576;2023-04-15T15:10:54;11.84;88.04
70928;SHT31;58587;53.034;18.576;2023-04-15T15:13:19;11.80;87.61
70928;SHT31;58587;53.034;18.576;2023-04-15T15:15:47;11.79;87.60
70928;SHT31;58587;53.034;18.576;2023-04-15T15:18:14;11.77;87.68
70928;SHT31;58587;53.034;18.576;2023-04-15T15:20:40;11.81;87.58
70928;SHT31;58587;53.034;18.576;2023-04-15T15:23:06;11.67;87.55
70928;SHT31;58587;53.034;18.576;2023-04-15T15:25:31;11.63;87.52
70928;SHT31;58587;53.034;18.576;2023-04-15T15:27:56;11.52;87.24
70928;SHT31;58587;53.034;18.576;2023-04-15T15:30:21;11.43;87.75
70928;SHT31;58587;53.034;18.576;2023-04-15T15:32:48;11.40;87.85
70928;SHT31;58587;53.034;18.576;2023-04-15T15:35:13;11.39;87.99
70928;SHT31;58587;53.034;18.576;2023-04-15T15:37:41;11.36;88.10
70928;SHT31;58587;53.034;18.576;2023-04-15T15:40:07;11.37;88.10
70928;SHT31;58587;53.034;18.576;2023-04-15T15:42:33;11.28;88.45
70928;SHT31;58587;53.034;18.576;2023-04-15T15:44:58;11.25;88.81
70928;SHT31;58587;53.034;18.576;2023-04-15T15:47:24;11.23;88.50
70928;SHT31;58587;53.034;18.576;2023-04-15T15:49:51;11.19;88.33
70928;SHT31;58587;53.034;18.576;2023-04-15T15:52:16;11.18;88.17
70928;SHT31;58587;53.034;18.576;2023-04-15T15:54:41;11.16;88.39
70928;SHT31;58587;53.034;18.576;2023-04-15T15:57:07;11.11;88.55
70928;SHT31;58587;53.034;18.576;2023-04-15T15:59:32;11.09;88.76
70928;SHT31;58587;53.034;18.576;2023-04-15T16:01:58;11.09;88.95
70928;SHT31;58587;53.034;18.576;2023-04-15T16:04:24;11.09;88.90
70928;SHT31;58587;53.034;18.576;2023-04-15T16:06:49;11.09;88.98
70928;SHT31;58587;53.034;18.576;2023-04-15T16:09:15;11.01;88.79
70928;SHT31;58587;53.034;18.576;2023-04-15T16:11:40;10.95;88.90
70928;SHT31;58587;53.034;18.576;2023-04-15T16:14:06;10.98;88.77
70928;SHT31;58587;53.034;18.576;2023-04-15T16:16:31;10.94;89.03
70928;SHT31;58587;53.034;18.576;2023-04-15T16:18:56;10.89;89.13
70928;SHT31;58587;53.034;18.576;2023-04-15T16:21:22;10.91;89.07
70928;SHT31;58587;53.034;18.576;2023-04-15T16:23:49;10.88;89.22
70928;SHT31;58587;53.034;18.576;2023-04-15T16:26:14;10.88;89.32
70928;SHT31;58587;53.034;18.576;2023-04-15T16:28:40;10.89;89.18
70928;SHT31;58587;53.034;18.576;2023-04-15T16:31:05;10.85;89.30
70928;SHT31;58587;53.034;18.576;2023-04-15T16:33:31;10.81;89.66
70928;SHT31;58587;53.034;18.576;2023-04-15T16:35:56;10.76;89.53
70928;SHT31;58587;53.034;18.576;2023-04-15T16:38:21;10.74;89.63
70928;SHT31;58587;53.034;18.576;2023-04-15T16:40:47;10.71;89.93
70928;SHT31;58587;53.034;18.576;2023-04-15T16:43:12;10.68;90.06
70928;SHT31;58587;53.034;18.576;2023-04-15T16:45:37;10.65;89.99
70928;SHT31;58587;53.034;18.576;2023-04-15T16:48:03;10.60;90.38
70928;SHT31;58587;53.034;18.576;2023-04-15T16:50:28;10.60;90.26
70928;SHT31;58587;53.034;18.576;2023-04-15T16:52:53;10.55;90.44
70928;SHT31;58587;53.034;18.576;2023-04-15T16:55:19;10.57;90.43
70928;SHT31;58587;53.034;18.576;2023-04-15T16:57:44;10.57;90.44
70928;SHT31;58587;53.034;18.576;2023-04-15T17:00:10;10.51;90.87
70928;SHT31;58587;53.034;18.576;2023-04-15T17:02:36;10.47;90.82
70928;SHT31;58587;53.034;18.576;2023-04-15T17:05:01;10.45;90.74
70928;SHT31;58587;53.034;18.576;2023-04-15T17:07:27;10.48;90.64
70928;SHT31;58587;53.034;18.576;2023-04-15T17:09:52;10.44;90.69
70928;SHT31;58587;53.034;18.576;2023-04-15T17:12:17;10.44;90.65
70928;SHT31;58587;53.034;18.576;2023-04-15T17:14:43;10.44;90.85
70928;SHT31;58587;53.034;18.576;2023-04-15T17:17:08;10.40;90.79
70928;SHT31;58587;53.034;18.576;2023-04-15T17:19:33;10.40;90.78
70928;SHT31;58587;53.034;18.576;2023-04-15T17:21:59;10.34;91.13
70928;SHT31;58587;53.034;18.576;2023-04-15T17:24:27;10.34;90.91
70928;SHT31;58587;53.034;18.576;2023-04-15T17:26:53;10.37;90.75
70928;SHT31;58587;53.034;18.576;2023-04-15T17:29:18;10.37;90.66
70928;SHT31;58587;53.034;18.576;2023-04-15T17:31:44;10.36;90.51
70928;SHT31;58587;53.034;18.576;2023-04-15T17:34:10;10.36;90.18
70928;SHT31;58587;53.034;18.576;2023-04-15T17:36:36;10.34;90.53
70928;SHT31;58587;53.034;18.576;2023-04-15T17:39:01;10.31;90.47
70928;SHT31;58587;53.034;18.576;2023-04-15T17:41:26;10.31;90.44
70928;SHT31;58587;53.034;18.576;2023-04-15T17:43:52;10.24;90.44
70928;SHT31;58587;53.034;18.576;2023-04-15T17:46:17;10.29;90.33
70928;SHT31;58587;53.034;18.576;2023-04-15T17:48:43;10.27;90.43
70928;SHT31;58587;53.034;18.576;2023-04-15T17:51:08;10.23;90.36
70928;SHT31;58587;53.034;18.576;2023-04-15T17:53:34;10.24;90.60
70928;SHT31;58587;53.034;18.576;2023-04-15T17:56:00;10.18;90.67
70928;SHT31;58587;53.034;18.576;2023-04-15T17:58:25;10.18;90.75
70928;SHT31;58587;53.034;18.576;2023-04-15T18:00:51;10.14;90.59
70928;SHT31;58587;53.034;18.576;2023-04-15T18:03:17;10.14;90.62
70928;SHT31;58587;53.034;18.576;2023-04-15T18:05:42;10.11;90.61
70928;SHT31;58587;53.034;18.576;2023-04-15T18:08:07;10.16;90.55
70928;SHT31;58587;53.034;18.576;2023-04-15T18:10:34;10.17;90.69
70928;SHT31;58587;53.034;18.576;2023-04-15T18:12:59;10.16;90.55
70928;SHT31;58587;53.034;18.576;2023-04-15T18:15:31;10.14;90.81
70928;SHT31;58587;53.034;18.576;2023-04-15T18:17:59;10.11;90.80
70928;SHT31;58587;53.034;18.576;2023-04-15T18:20:27;10.16;90.85
70928;SHT31;58587;53.034;18.576;2023-04-15T18:22:53;10.13;90.97
70928;SHT31;58587;53.034;18.576;2023-04-15T18:25:19;10.10;90.98
70928;SHT31;58587;53.034;18.576;2023-04-15T18:27:45;10.10;91.26
70928;SHT31;58587;53.034;18.576;2023-04-15T18:30:11;10.10;90.98
70928;SHT31;58587;53.034;18.576;2023-04-15T18:32:37;10.07;91.05
70928;SHT31;58587;53.034;18.576;2023-04-15T18:35:03;10.03;91.46
70928;SHT31;58587;53.034;18.576;2023-04-15T18:37:30;10.02;91.31
70928;SHT31;58587;53.034;18.576;2023-04-15T18:39:56;10.04;91.17
70928;SHT31;58587;53.034;18.576;2023-04-15T18:42:22;10.03;91.19
70928;SHT31;58587;53.034;18.576;2023-04-15T18:44:48;10.00;91.35
70928;SHT31;58587;53.034;18.576;2023-04-15T18:47:14;10.00;91.29
70928;SHT31;58587;53.034;18.576;2023-04-15T18:49:39;9.99;91.22
70928;SHT31;58587;53.034;18.576;2023-04-15T18:52:06;9.94;91.14
70928;SHT31;58587;53.034;18.576;2023-04-15T18:54:32;9.94;91.26
70928;SHT31;58587;53.034;18.576;2023-04-15T18:56:57;9.94;90.96
70928;SHT31;58587;53.034;18.576;2023-04-15T18:59:25;9.94;90.95
70928;SHT31;58587;53.034;18.576;2023-04-15T19:01:54;9.96;90.96
70928;SHT31;58587;53.034;18.576;2023-04-15T19:04:19;9.92;90.92
70928;SHT31;58587;53.034;18.576;2023-04-15T19:06:48;9.96;90.70
70928;SHT31;58587;53.034;18.576;2023-04-15T19:09:16;9.93;90.82
70928;SHT31;58587;53.034;18.576;2023-04-15T19:11:44;9.87;90.92
70928;SHT31;58587;53.034;18.576;2023-04-15T19:14:10;9.86;91.00
70928;SHT31;58587;53.034;18.576;2023-04-15T19:16:35;9.87;90.93
70928;SHT31;58587;53.034;18.576;2023-04-15T19:19:07;9.89;90.69
70928;SHT31;58587;53.034;18.576;2023-04-15T19:21:32;9.89;90.78
70928;SHT31;58587;53.034;18.576;2023-04-15T19:23:58;9.85;90.59
70928;SHT31;58587;53.034;18.576;2023-04-15T19:26:24;9.79;90.87
70928;SHT31;58587;53.034;18.576;2023-04-15T19:28:50;9.78;90.88
70928;SHT31;58587;53.034;18.576;2023-04-15T19:31:18;9.80;90.83
70928;SHT31;58587;53.034;18.576;2023-04-15T19:33:43;9.76;90.72
70928;SHT31;58587;53.034;18.576;2023-04-15T19:36:09;9.76;90.80
70928;SHT31;58587;53.034;18.576;2023-04-15T19:38:34;9.73;90.91
70928;SHT31;58587;53.034;18.576;2023-04-15T19:41:00;9.75;90.77
70928;SHT31;58587;53.034;18.576;2023-04-15T19:43:25;9.72;91.03
70928;SHT31;58587;53.034;18.576;2023-04-15T19:45:51;9.76;90.88
70928;SHT31;58587;53.034;18.576;2023-04-15T19:48:18;9.70;90.96
70928;SHT31;58587;53.034;18.576;2023-04-15T19:50:44;9.69;90.79
70928;SHT31;58587;53.034;18.576;2023-04-15T19:53:09;9.66;91.05
70928;SHT31;58587;53.034;18.576;2023-04-15T19:55:35;9.66;90.93
70928;SHT31;58587;53.034;18.576;2023-04-15T19:58:00;9.69;90.86
70928;SHT31;58587;53.034;18.576;2023-04-15T20:00:26;9.70;90.69
70928;SHT31;58587;53.034;18.576;2023-04-15T20:02:51;9.70;90.69
70928;SHT31;58587;53.034;18.576;2023-04-15T20:05:17;9.65;90.60
70928;SHT31;58587;53.034;18.576;2023-04-15T20:07:42;9.66;90.84
70928;SHT31;58587;53.034;18.576;2023-04-15T20:10:09;9.65;90.64
70928;SHT31;58587;53.034;18.576;2023-04-15T20:12:40;9.65;90.64
70928;SHT31;58587;53.034;18.576;2023-04-15T20:15:08;9.69;90.45
70928;SHT31;58587;53.034;18.576;2023-04-15T20:17:37;9.63;90.59
70928;SHT31;58587;53.034;18.576;2023-04-15T20:20:03;9.66;90.59
70928;SHT31;58587;53.034;18.576;2023-04-15T20:22:30;9.56;90.73
70928;SHT31;58587;53.034;18.576;2023-04-15T20:24:56;9.65;90.43
70928;SHT31;58587;53.034;18.576;2023-04-15T20:27:21;9.58;90.67
70928;SHT31;58587;53.034;18.576;2023-04-15T20:29:46;9.59;90.69
70928;SHT31;58587;53.034;18.576;2023-04-15T20:32:13;9.58;90.59
70928;SHT31;58587;53.034;18.576;2023-04-15T20:34:38;9.56;90.71
70928;SHT31;58587;53.034;18.576;2023-04-15T20:37:06;9.55;90.40
70928;SHT31;58587;53.034;18.576;2023-04-15T20:39:32;9.55;90.58
70928;SHT31;58587;53.034;18.576;2023-04-15T20:41:58;9.50;90.44
70928;SHT31;58587;53.034;18.576;2023-04-15T20:44:23;9.48;90.48
70928;SHT31;58587;53.034;18.576;2023-04-15T20:46:48;9.50;90.38
70928;SHT31;58587;53.034;18.576;2023-04-15T20:49:14;9.52;90.34
70928;SHT31;58587;53.034;18.576;2023-04-15T20:51:39;9.49;90.38
70928;SHT31;58587;53.034;18.576;2023-04-15T20:54:05;9.52;90.15
70928;SHT31;58587;53.034;18.576;2023-04-15T20:56:31;9.49;90.06
70928;SHT31;58587;53.034;18.576;2023-04-15T20:58:59;9.50;90.09
70928;SHT31;58587;53.034;18.576;2023-04-15T21:01:25;9.46;90.23
70928;SHT31;58587;53.034;18.576;2023-04-15T21:03:50;9.48;90.23
70928;SHT31;58587;53.034;18.576;2023-04-15T21:06:16;9.45;90.27
70928;SHT31;58587;53.034;18.576;2023-04-15T21:08:42;9.49;90.07
70928;SHT31;58587;53.034;18.576;2023-04-15T21:11:08;9.45;90.09
70928;SHT31;58587;53.034;18.576;2023-04-15T21:13:33;9.43;90.25
70928;SHT31;58587;53.034;18.576;2023-04-15T21:15:58;9.43;90.20
70928;SHT31;58587;53.034;18.576;2023-04-15T21:18:24;9.43;90.18
70928;SHT31;58587;53.034;18.576;2023-04-15T21:20:59;9.48;89.89
70928;SHT31;58587;53.034;18.576;2023-04-15T21:23:25;9.45;89.95
70928;SHT31;58587;53.034;18.576;2023-04-15T21:25:50;9.45;89.93
70928;SHT31;58587;53.034;18.576;2023-04-15T21:28:15;9.42;89.98
70928;SHT31;58587;53.034;18.576;2023-04-15T21:30:41;9.38;89.98
70928;SHT31;58587;53.034;18.576;2023-04-15T21:33:06;9.45;89.61
70928;SHT31;58587;53.034;18.576;2023-04-15T21:35:31;9.43;89.79
70928;SHT31;58587;53.034;18.576;2023-04-15T21:37:56;9.38;90.03
70928;SHT31;58587;53.034;18.576;2023-04-15T21:40:22;9.40;89.82
70928;SHT31;58587;53.034;18.576;2023-04-15T21:42:47;9.36;89.85
70928;SHT31;58587;53.034;18.576;2023-04-15T21:45:13;9.34;89.80
70928;SHT31;58587;53.034;18.576;2023-04-15T21:47:39;9.35;89.83
70928;SHT31;58587;53.034;18.576;2023-04-15T21:50:05;9.32;89.93
70928;SHT31;58587;53.034;18.576;2023-04-15T21:52:31;9.35;90.02
70928;SHT31;58587;53.034;18.576;2023-04-15T21:54:57;9.29;89.88
70928;SHT31;58587;53.034;18.576;2023-04-15T21:57:22;9.28;89.76
70928;SHT31;58587;53.034;18.576;2023-04-15T21:59:47;9.27;89.80
70928;SHT31;58587;53.034;18.576;2023-04-15T22:02:13;9.31;89.85
70928;SHT31;58587;53.034;18.576;2023-04-15T22:04:38;9.29;89.67
70928;SHT31;58587;53.034;18.576;2023-04-15T22:07:03;9.29;89.71
70928;SHT31;58587;53.034;18.576;2023-04-15T22:09:29;9.25;89.69
70928;SHT31;58587;53.034;18.576;2023-04-15T22:11:54;9.25;89.85
70928;SHT31;58587;53.034;18.576;2023-04-15T22:14:20;9.25;89.79
70928;SHT31;58587;53.034;18.576;2023-04-15T22:16:45;9.25;89.63
70928;SHT31;58587;53.034;18.576;2023-04-15T22:19:10;9.25;89.77
70928;SHT31;58587;53.034;18.576;2023-04-15T22:21:36;9.24;89.69
70928;SHT31;58587;53.034;18.576;2023-04-15T22:24:01;9.22;89.80
70928;SHT31;58587;53.034;18.576;2023-04-15T22:26:26;9.25;89.71
70928;SHT31;58587;53.034;18.576;2023-04-15T22:28:52;9.27;89.73
70928;SHT31;58587;53.034;18.576;2023-04-15T22:31:17;9.25;89.69
70928;SHT31;58587;53.034;18.576;2023-04-15T22:33:43;9.27;89.69
70928;SHT31;58587;53.034;18.576;2023-04-15T22:36:08;9.22;89.78
70928;SHT31;58587;53.034;18.576;2023-04-15T22:38:33;9.25;89.66
70928;SHT31;58587;53.034;18.576;2023-04-15T22:40:59;9.24;89.77
70928;SHT31;58587;53.034;18.576;2023-04-15T22:43:24;9.21;89.50
70928;SHT31;58587;53.034;18.576;2023-04-15T22:45:50;9.24;89.54
70928;SHT31;58587;53.034;18.576;2023-04-15T22:48:17;9.22;89.46
70928;SHT31;58587;53.034;18.576;2023-04-15T22:50:42;9.22;89.30
70928;SHT31;58587;53.034;18.576;2023-04-15T22:53:08;9.24;89.05
70928;SHT31;58587;53.034;18.576;2023-04-15T22:55:33;9.24;89.18
70928;SHT31;58587;53.034;18.576;2023-04-15T22:57:58;9.19;89.19
70928;SHT31;58587;53.034;18.576;2023-04-15T23:00:24;9.19;89.18
70928;SHT31;58587;53.034;18.576;2023-04-15T23:02:49;9.21;89.28
70928;SHT31;58587;53.034;18.576;2023-04-15T23:05:14;9.21;89.26
70928;SHT31;58587;53.034;18.576;2023-04-15T23:07:40;9.18;89.20
70928;SHT31;58587;53.034;18.576;2023-04-15T23:10:06;9.18;89.34
70928;SHT31;58587;53.034;18.576;2023-04-15T23:12:32;9.19;89.55
70928;SHT31;58587;53.034;18.576;2023-04-15T23:14:57;9.21;89.33
70928;SHT31;58587;53.034;18.576;2023-04-15T23:17:22;9.18;89.23
70928;SHT31;58587;53.034;18.576;2023-04-15T23:19:47;9.19;89.18
70928;SHT31;58587;53.034;18.576;2023-04-15T23:22:13;9.19;89.14
